Time;durP1;ratioP1;P1;durP2;ratioP2;P2;SDS_P1;SDS_P2;PMS_P1;PMS_P2;Temp;Humidity;BMP_temperature;BMP_pressure;BME280_temperature;BME280_humidity;BME280_pressure;Samples;Min_cycle;Max_cycle;Signal;HPM_P1;HPM_P2
2022/03/09 00:04:26;;;;;;;1.95;1.17;;;8.10;62.70;;;;;;20903849;28;20036;-75
2022/03/09 00:14:26;;;;;;;2.13;1.17;;;8.00;62.50;;;;;;20883325;28;20045;-76
2022/03/09 00:24:27;;;;;;;3.65;1.40;;;8.10;62.60;;;;;;20882848;28;20055;-75
2022/03/09 00:34:27;;;;;;;2.42;1.52;;;8.00;62.50;;;;;;20882342;28;20068;-76
2022/03/09 00:44:28;;;;;;;1.48;0.85;;;8.00;62.50;;;;;;20897852;28;20037;-75
2022/03/09 00:54:29;;;;;;;2.05;1.20;;;8.00;62.50;;;;;;20897040;28;20048;-75
2022/03/09 01:04:29;;;;;;;3.03;1.42;;;8.00;62.40;;;;;;20864104;28;20028;-76
2022/03/09 01:14:30;;;;;;;1.85;1.30;;;8.00;62.40;;;;;;20878908;28;20743;-75
2022/03/09 01:24:30;;;;;;;3.60;1.23;;;8.00;62.40;;;;;;20862198;28;20556;-75
2022/03/09 01:34:31;;;;;;;2.75;1.02;;;8.00;62.30;;;;;;20893849;28;20036;-76
2022/03/09 01:44:31;;;;;;;3.00;1.50;;;8.00;62.30;;;;;;20859872;28;20036;-75
2022/03/09 01:54:32;;;;;;;2.85;1.00;;;8.00;62.30;;;;;;20859670;28;20279;-75
2022/03/09 02:04:33;;;;;;;3.00;1.73;;;8.00;62.20;;;;;;20860376;28;20469;-75
2022/03/09 02:14:37;;;;;;;2.65;1.05;;;7.90;62.10;;;;;;20871785;28;20033;-76
2022/03/09 02:24:38;;;;;;;2.00;1.02;;;8.00;62.20;;;;;;20872499;28;20037;-75
2022/03/09 02:34:39;;;;;;;1.80;1.00;;;7.90;62.10;;;;;;20875373;28;20162;-75
2022/03/09 02:44:39;;;;;;;2.45;1.15;;;7.90;62.10;;;;;;20890212;28;20037;-75
2022/03/09 02:54:41;;;;;;;4.45;1.77;;;7.90;62.00;;;;;;20867707;28;20028;-75
2022/03/09 03:04:41;;;;;;;2.03;1.35;;;7.90;62.00;;;;;;20906867;28;20037;-76
2022/03/09 03:14:42;;;;;;;2.22;1.25;;;7.90;62.00;;;;;;20905798;28;20107;-76
2022/03/09 03:24:43;;;;;;;2.13;1.30;;;7.90;61.90;;;;;;20871849;28;20091;-75
2022/03/09 03:34:43;;;;;;;2.50;1.40;;;7.90;61.80;;;;;;20887478;28;20074;-77
2022/03/09 03:44:44;;;;;;;1.90;1.23;;;7.90;61.80;;;;;;20887323;28;20037;-76
2022/03/09 03:54:44;;;;;;;4.85;1.30;;;7.90;61.80;;;;;;20868834;28;20033;-75
2022/03/09 04:04:46;;;;;;;3.22;1.38;;;7.90;61.70;;;;;;20884054;28;20408;-77
2022/03/09 04:14:47;;;;;;;2.05;1.13;;;7.90;61.70;;;;;;20883818;28;20075;-75
2022/03/09 04:24:50;;;;;;;2.88;1.52;;;7.90;61.70;;;;;;20864674;28;20120;-75
2022/03/09 04:34:52;;;;;;;3.30;1.80;;;7.80;61.60;;;;;;20907404;28;20535;-74
2022/03/09 04:44:53;;;;;;;2.90;1.48;;;7.80;61.50;;;;;;20864751;28;20094;-75
2022/03/09 04:54:54;;;;;;;2.00;1.17;;;7.80;61.50;;;;;;20880881;28;20033;-74
2022/03/09 05:04:54;;;;;;;2.22;1.42;;;7.80;61.50;;;;;;20863757;28;20044;-74
2022/03/09 05:14:55;;;;;;;2.67;1.58;;;7.80;61.50;;;;;;20861862;28;20067;-73
2022/03/09 05:24:55;;;;;;;1.98;1.20;;;7.80;61.40;;;;;;20894485;28;20044;-73
2022/03/09 05:34:56;;;;;;;3.75;1.35;;;7.80;61.30;;;;;;20879320;28;20037;-73
2022/03/09 05:44:56;;;;;;;2.22;1.05;;;7.80;61.30;;;;;;20876325;28;20060;-73
2022/03/09 05:54:58;;;;;;;3.38;1.60;;;7.80;61.30;;;;;;20856037;28;20029;-79
2022/03/09 06:04:59;;;;;;;3.17;1.52;;;7.80;61.30;;;;;;20883521;28;20393;-70
2022/03/09 06:14:59;;;;;;;3.15;1.27;;;7.70;61.20;;;;;;20853748;28;20079;-73
2022/03/09 06:25:00;;;;;;;2.72;1.30;;;7.70;61.10;;;;;;20869605;28;20041;-74
2022/03/09 06:35:01;;;;;;;2.75;1.20;;;7.70;61.10;;;;;;20871988;28;20044;-73
2022/03/09 06:45:02;;;;;;;3.03;1.70;;;7.70;61.10;;;;;;20854273;28;20037;-74
2022/03/09 06:55:03;;;;;;;3.45;1.77;;;7.70;61.00;;;;;;20852810;28;20057;-76
2022/03/09 07:05:04;;;;;;;3.22;1.52;;;7.70;61.00;;;;;;20887099;28;20044;-74
2022/03/09 07:15:06;;;;;;;2.78;1.67;;;7.70;60.90;;;;;;20884420;28;20396;-74
2022/03/09 07:25:07;;;;;;;5.05;1.48;;;7.70;60.90;;;;;;20884871;28;20033;-75
2022/03/09 07:35:09;;;;;;;2.53;1.50;;;7.70;61.00;;;;;;20816127;28;20470;-75
2022/03/09 07:45:09;;;;;;;2.40;1.20;;;7.70;61.00;;;;;;20903248;28;20393;-77
2022/03/09 07:55:10;;;;;;;2.50;1.40;;;7.70;61.10;;;;;;20901774;28;20048;-77
2022/03/09 08:05:11;;;;;;;1.60;1.05;;;7.70;61.20;;;;;;20886169;28;20068;-77
2022/03/09 08:15:11;;;;;;;1.25;0.98;;;7.70;61.30;;;;;;20868504;28;20490;-78
2022/03/09 08:25:12;;;;;;;2.57;1.20;;;7.70;61.40;;;;;;20851770;28;20201;-78
2022/03/09 08:35:12;;;;;;;2.37;1.40;;;7.70;61.50;;;;;;20852421;28;20315;-79
2022/03/09 08:45:14;;;;;;;1.75;1.10;;;7.70;61.60;;;;;;20898927;28;20298;-77
2022/03/09 08:55:14;;;;;;;2.55;1.30;;;7.80;61.70;;;;;;20895619;28;20473;-77
2022/03/09 09:05:15;;;;;;;2.70;1.20;;;7.90;61.60;;;;;;20879874;28;20041;-75
2022/03/09 09:15:16;;;;;;;2.63;1.38;;;8.00;61.40;;;;;;20893691;28;20040;-77
2022/03/09 09:25:16;;;;;;;5.78;1.75;;;8.00;61.40;;;;;;20862077;28;20183;-78
2022/03/09 09:35:17;;;;;;;1.67;0.98;;;8.00;61.50;;;;;;20880413;28;20116;-78
2022/03/09 09:45:18;;;;;;;1.98;1.10;;;8.00;61.40;;;;;;20895294;28;20048;-79
2022/03/09 09:55:18;;;;;;;3.13;1.35;;;8.00;61.50;;;;;;20878957;28;20029;-78
2022/03/09 10:05:20;;;;;;;2.63;1.00;;;8.00;61.60;;;;;;20861242;28;20036;-79
2022/03/09 10:15:20;;;;;;;2.58;1.38;;;8.00;61.70;;;;;;20877574;28;20087;-78
2022/03/09 10:25:23;;;;;;;1.27;0.70;;;8.10;61.70;;;;;;20860320;28;20036;-80
2022/03/09 10:35:29;;;;;;;1.30;0.85;;;8.00;61.70;;;;;;20858459;28;20447;-79
2022/03/09 10:45:31;;;;;;;3.27;1.20;;;8.10;61.70;;;;;;20890402;28;20037;-80
2022/03/09 10:55:33;;;;;;;2.22;1.15;;;8.20;61.70;;;;;;20889893;28;20052;-77
2022/03/09 11:05:34;;;;;;;3.45;1.48;;;8.30;61.40;;;;;;20890342;28;20048;-74
2022/03/09 11:15:35;;;;;;;4.40;1.33;;;8.50;61.00;;;;;;20901975;28;20037;-78
2022/03/09 11:25:35;;;;;;;3.80;2.00;;;8.80;60.50;;;;;;20890962;28;20041;-76
2022/03/09 11:35:37;;;;;;;3.13;1.42;;;9.00;60.00;;;;;;20889844;28;20095;-75
2022/03/09 11:45:38;;;;;;;2.75;1.13;;;9.10;59.70;;;;;;20888192;28;20090;-76
2022/03/09 11:55:39;;;;;;;2.33;1.23;;;9.20;59.40;;;;;;20902420;28;20107;-77
2022/03/09 12:05:40;;;;;;;5.43;1.00;;;9.10;59.30;;;;;;20903560;28;20037;-76
2022/03/09 12:16:01;;;;;;;2.53;0.82;;;9.20;59.30;;;;;;20901554;28;20060;-75
2022/03/09 12:26:01;;;;;;;1.27;0.68;;;9.10;59.30;;;;;;20898511;28;20029;-72
2022/03/09 12:36:16;;;;;;;2.75;0.82;;;9.10;59.60;;;;;;20901418;28;20102;-74
2022/03/09 12:46:21;;;;;;;2.42;1.05;;;9.10;59.60;;;;;;20868091;28;20636;-74
2022/03/09 12:56:23;;;;;;;1.73;0.80;;;9.00;60.00;;;;;;20851807;28;20041;-79
2022/03/09 13:06:25;;;;;;;1.85;0.90;;;9.00;60.00;;;;;;20896482;28;20485;-80
2022/03/09 13:16:26;;;;;;;1.40;0.70;;;9.00;60.10;;;;;;20867537;28;20044;-81
2022/03/09 13:26:28;;;;;;;2.72;1.65;;;9.10;60.30;;;;;;20877073;28;20048;-75
2022/03/09 13:36:29;;;;;;;3.00;1.02;;;9.10;60.40;;;;;;20855186;28;20491;-80
2022/03/09 13:46:31;;;;;;;4.95;1.27;;;9.10;60.50;;;;;;20872389;28;20033;-76
2022/03/09 13:56:37;;;;;;;4.97;1.35;;;9.30;60.60;;;;;;20878561;28;20033;-84
2022/03/09 14:06:38;;;;;;;4.28;0.80;;;9.30;61.00;;;;;;20878987;28;20033;-79
2022/03/09 14:16:42;;;;;;;12.02;1.20;;;9.20;61.10;;;;;;20876414;28;20435;-80
2022/03/09 14:26:43;;;;;;;8.27;0.95;;;9.20;61.10;;;;;;20889099;28;20043;-80
2022/03/09 14:36:44;;;;;;;6.75;0.93;;;9.10;61.30;;;;;;20858183;28;20446;-80
2022/03/09 14:46:46;;;;;;;1.05;0.40;;;9.10;61.50;;;;;;20876527;28;20052;-80
2022/03/09 14:56:47;;;;;;;1.17;0.50;;;9.00;61.60;;;;;;20907007;28;20607;-80
2022/03/09 15:06:49;;;;;;;2.42;0.98;;;9.00;61.60;;;;;;20887236;28;20032;-85
2022/03/09 15:16:49;;;;;;;0.88;0.50;;;9.00;61.60;;;;;;20875558;28;20041;-84
2022/03/09 15:26:50;;;;;;;2.50;0.70;;;9.10;61.50;;;;;;20885816;28;20094;-85
2022/03/09 15:36:51;;;;;;;1.20;0.60;;;9.10;61.50;;;;;;20891890;28;20434;-80
2022/03/09 15:46:51;;;;;;;0.88;0.50;;;9.20;61.40;;;;;;20871952;28;20041;-82
2022/03/09 15:56:52;;;;;;;3.00;0.95;;;9.30;61.30;;;;;;20884028;28;20654;-80
2022/03/09 16:06:52;;;;;;;1.38;0.82;;;9.30;61.20;;;;;;20867922;28;20127;-79
2022/03/09 16:16:53;;;;;;;2.72;0.65;;;9.40;61.20;;;;;;20872520;28;20021;-82
2022/03/09 16:26:54;;;;;;;2.17;0.55;;;9.40;61.30;;;;;;20838269;28;20048;-81
2022/03/09 16:36:54;;;;;;;1.85;0.77;;;9.40;61.50;;;;;;20910479;28;20041;-78
2022/03/09 16:46:55;;;;;;;0.90;0.47;;;9.40;61.50;;;;;;20864888;28;20103;-75
2022/03/09 16:56:56;;;;;;;2.58;0.90;;;9.40;61.70;;;;;;20876906;28;20041;-77
2022/03/09 17:06:59;;;;;;;1.33;0.98;;;9.30;61.90;;;;;;20891330;28;20033;-77
2022/03/09 17:16:59;;;;;;;1.20;0.60;;;9.20;62.10;;;;;;20894165;28;20041;-80
2022/03/09 17:27:00;;;;;;;1.27;0.70;;;9.10;62.30;;;;;;20857829;28;20086;-76
2022/03/09 17:37:01;;;;;;;3.80;0.93;;;9.10;62.40;;;;;;20911882;28;20099;-80
2022/03/09 17:47:01;;;;;;;5.07;1.77;;;9.00;62.40;;;;;;20877284;28;20086;-76
2022/03/09 17:57:03;;;;;;;6.05;0.90;;;9.00;62.40;;;;;;20859887;28;20291;-76
2022/03/09 18:07:04;;;;;;;2.40;0.85;;;8.90;62.30;;;;;;20856993;28;20055;-76
2022/03/09 18:17:04;;;;;;;3.58;1.20;;;8.90;62.30;;;;;;20893309;28;20052;-76
2022/03/09 18:27:07;;;;;;;2.47;1.10;;;8.80;62.30;;;;;;20860163;28;20504;-76
2022/03/09 18:37:14;;;;;;;2.30;1.15;;;8.80;62.40;;;;;;20852944;28;20033;-76
2022/03/09 18:47:15;;;;;;;1.40;0.70;;;8.80;62.50;;;;;;20953774;28;20511;-76
2022/03/09 18:57:15;;;;;;;3.60;1.67;;;8.80;62.50;;;;;;20973225;28;20056;-75
2022/03/09 19:07:18;;;;;;;3.88;1.40;;;8.70;62.30;;;;;;20971329;28;20043;-76
2022/03/09 19:17:18;;;;;;;3.15;1.60;;;8.70;62.30;;;;;;20974055;28;20534;-78
2022/03/09 19:27:21;;;;;;;2.92;1.75;;;8.80;62.30;;;;;;20955860;28;20037;-80
2022/03/09 19:37:22;;;;;;;2.35;1.42;;;8.70;62.20;;;;;;21001258;28;20032;-78
2022/03/09 19:47:23;;;;;;;3.93;1.73;;;8.80;62.20;;;;;;20970690;28;20535;-77
2022/03/09 19:57:23;;;;;;;3.78;1.65;;;8.70;62.20;;;;;;20987439;28;20282;-76
2022/03/09 20:07:24;;;;;;;4.53;1.10;;;8.80;62.20;;;;;;20986641;28;20068;-75
2022/03/09 20:17:24;;;;;;;3.83;1.50;;;8.70;62.10;;;;;;20969683;28;20028;-78
2022/03/09 20:27:25;;;;;;;3.03;1.38;;;8.70;62.10;;;;;;20939137;28;20292;-76
2022/03/09 20:37:25;;;;;;;2.85;1.40;;;8.80;62.00;;;;;;20884420;28;20041;-76
2022/03/09 20:47:26;;;;;;;4.07;1.80;;;8.70;62.60;;;;;;20881980;28;20770;-76
2022/03/09 20:57:27;;;;;;;2.65;1.58;;;8.80;61.90;;;;;;20883884;28;20037;-76
2022/03/09 21:07:27;;;;;;;3.75;1.98;;;8.70;61.90;;;;;;20883635;28;20798;-75
2022/03/09 21:17:28;;;;;;;3.57;1.70;;;8.70;61.90;;;;;;20898160;28;20082;-76
2022/03/09 21:27:28;;;;;;;3.15;1.50;;;8.70;61.90;;;;;;20880275;28;20307;-76
2022/03/09 21:37:29;;;;;;;5.00;2.17;;;8.70;61.80;;;;;;20864858;28;20048;-76
2022/03/09 21:47:30;;;;;;;3.08;1.63;;;8.70;61.90;;;;;;20879366;28;20311;-76
2022/03/09 21:57:30;;;;;;;4.40;2.40;;;8.70;61.80;;;;;;20862800;28;20036;-75
2022/03/09 22:07:31;;;;;;;3.10;2.00;;;8.70;61.80;;;;;;20862776;28;20041;-76
2022/03/09 22:17:31;;;;;;;3.20;1.67;;;8.70;61.70;;;;;;20893808;28;20279;-77
2022/03/09 22:27:32;;;;;;;3.38;1.98;;;8.70;61.70;;;;;;20876506;28;20029;-76
2022/03/09 22:37:33;;;;;;;3.67;1.92;;;8.70;61.70;;;;;;20910861;28;20044;-76
2022/03/09 22:47:33;;;;;;;6.68;1.50;;;8.70;61.60;;;;;;20877549;28;20090;-76
2022/03/09 22:57:34;;;;;;;4.05;2.08;;;8.70;61.70;;;;;;20843460;28;20033;-76
2022/03/09 23:07:34;;;;;;;3.60;2.13;;;8.70;61.60;;;;;;20878331;28;20066;-76
2022/03/09 23:17:35;;;;;;;4.28;1.95;;;8.70;61.60;;;;;;20923078;28;20104;-78
2022/03/09 23:27:36;;;;;;;3.47;1.70;;;8.70;61.60;;;;;;20874355;28;20040;-77
2022/03/09 23:37:37;;;;;;;7.45;2.30;;;8.70;61.60;;;;;;20857801;28;20399;-77
2022/03/09 23:47:37;;;;;;;3.33;1.70;;;8.70;61.50;;;;;;20873310;28;20041;-77
2022/03/09 23:57:39;;;;;;;3.30;2.00;;;8.70;61.50;;;;;;20872460;28;20032;-78
